Terminal Aerodrome Forecast
Issued by NWS

Home | Current Version | Previous Version | Text Only | Print | Product List | Glossary On
Versions: 1 2 3 4 5 6 7 8 9 10 11 12
247
FTUS46 KLOX 200559
TAFSBA
TAF
KSBA 200559Z 2006/2106 30010KT P6SM SCT250 WS015/34030KT
     FM200900 31008KT P6SM SCT025 BKN040 WS020/34030KT
     FM201200 31006KT P6SM BKN012 BKN025
     FM201800 28017G23KT P6SM SCT022 BKN045
     FM210000 33016G24KT P6SM SCT045 SCT250=

USA.gov is the U.S. government's official web portal to all federal, state and local government web resources and services.